Details From EBBR - Brussels Airport
To EKBI - Billund
Flight Number -
Tags Standard
Created
Modified
Stats Distance 361 nm / 668 km
Max Altitude 37,000 ft / 11,278 m
Waypoints 7
Social Downloads 26
Likes 0
Share

Download

Looking for another format? Having issues loading an existing format? Contact us
Advertisement - Login to hide

Notes

CAX Pilots : EKBI has nice scenery...!

Route

EBBR NIK PAM EEL VES GE EKBI

ID Type Via Altitude (ft/m) Position (lat/lon) Dist (leg/tot) Name
O EBBR APT - 184 / 56 50.90583 / 4.47951 - / 0 nm
NIK VOR - 8,500 / 2,591 51.16500 / 4.18389 19 / 19 nm
PAM VOR - 37,000 / 11,278 52.33476 / 5.09216 77 / 97 nm PAMPUS VOR-DME
EEL VOR - 37,000 / 11,278 53.16390 / 6.66667 75 / 172 nm EELDE VOR-DME
VES VOR - 9,000 / 2,743 55.60315 / 8.29996 157 / 330 nm VESTA VOR-DME
GE NDB - 3,000 / 914 55.73617 / 9.01858 25 / 355 nm Billund LOM
O EKBI APT - 247 / 75 55.74048 / 9.15731 4 / 360 nm

Altitude Profile

Advertisement - Login to hide

Weather


0- 5 10 15 20 25 30 35+ Temperature / °C

Clouds and Precipitation
Forecast for 2021-10-27 12:00 UTC. Updated 4 hours ago

Ground ~20,000 ft ~40,000 ft Winds

EBBR

Details ICAO EBBR (BRU)
Name Brussels
Region Belgium
Timezone Europe/Brussels (UTC+2.0)
Stats Elevation 184 ft / 56 m (AMSL)
Location 50.899900° 4.492770°
Runways 3
Magnetic Variation 1.655° E

METAR

EBBR 271320Z 22011KT 9999 FEW028 16/10 Q1023 NOSIG

Decode

TAF

TAF EBBR 271110Z 2712/2818 20009KT 9999 FEW020= TAF KMUO 271130Z 2711/2816 VRB06KT 9999 VCSH BKN080 610804 QNH3009INS TEMPO 2711/2715 -SHRA BKN030 OVC070 640804 BECMG 2716/2717 31012G18KT 9999 NSW FEW040 SCT120 QNH3016INS TEMPO 2718/2723 32015G25KT SCT030 BKN100 510009 BECMG 2801/2802 VRB06KT 9999 BKN050 BKN080 650804 QNH3031INS TX13/2722Z TN04/2810Z

Decode

Departure Runways

ID Width Length Bearing (true/mag) Surface Threshold Overrun Markings Lighting
01 164 ft / 50 m 9,810 ft / 2,990 m 14.44° / 12.79° ASPHALT 157 ft / 48 m 0 ft / 0 m PREC-APP CENTERLINE EDGE THRESHOLD ALSF-II TDZ REIL-OMNI
07L 148 ft / 45 m 11,917 ft / 3,632 m 65.37° / 63.72° ASPHALT 843 ft / 257 m 72 ft / 22 m PREC-APP CENTERLINE EDGE THRESHOLD TDZ REIL-OMNI
07R 148 ft / 45 m 10,522 ft / 3,207 m 69.88° / 68.22° ASPHALT 407 ft / 124 m 0 ft / 0 m PREC-APP CENTERLINE EDGE THRESHOLD REIL-OMNI
19 164 ft / 50 m 9,810 ft / 2,990 m 194.45° / 192.79° ASPHALT 722 ft / 220 m 43 ft / 13 m PREC-APP CENTERLINE EDGE THRESHOLD ALSF-I TDZ REIL-OMNI
25L 148 ft / 45 m 10,522 ft / 3,207 m 249.91° / 248.25° ASPHALT 0 ft / 0 m 13 ft / 4 m PREC-APP CENTERLINE EDGE THRESHOLD ALSF-II TDZ REIL-OMNI
25R 148 ft / 45 m 11,917 ft / 3,632 m 245.41° / 243.76° ASPHALT 981 ft / 299 m 0 ft / 0 m PREC-APP CENTERLINE EDGE THRESHOLD ALSF-II TDZ REIL-OMNI

EKBI

Details ICAO EKBI (BLL)
Name Billund
Region Denmark / Faroe Islands
Timezone Europe/Copenhagen (UTC+2.0)
Stats Elevation 247 ft / 75 m (AMSL)
Location 55.740500° 9.157080°
Runways 1
Magnetic Variation 3.108° E

METAR

EKBI 271320Z AUTO 23017G27KT 9999 OVC013/// 15/12 Q1013

Decode

TAF

TAF EKBI 271102Z 2712/2812 23012KT 8000 BKN012 TEMPO 2712/2714 24016G28KT BKN015 TEMPO 2721/2812 4000 BR BKN008

Decode

Destination Runways

ID Width Length Bearing (true/mag) Surface Threshold Overrun Markings Lighting
09 148 ft / 45 m 10,180 ft / 3,103 m 86.84° / 83.73° ASPHALT 492 ft / 150 m 0 ft / 0 m PREC-APP CENTERLINE EDGE THRESHOLD ALSF-I TDZ REIL-OMNI
27 148 ft / 45 m 10,180 ft / 3,103 m 266.88° / 263.77° ASPHALT 492 ft / 150 m 0 ft / 0 m PREC-APP CENTERLINE EDGE THRESHOLD ALSF-II TDZ REIL-OMNI

Approach Navaids

Runway Type Ident Frequency Range Bearing (true/mag) Slope Elevation
09 LOC-ILS BIL 111.70 MHz 18 nm / 33 km 86.85° / 83.74 ° - 247 ft / 75 m (AMSL)
09 GS BIL 111.70 MHz 10 nm / 19 km 87.70° / 84.59 ° 3.00° 247 ft / 75 m (AMSL)
09 MM MM - - 86.85° / 83.74 ° - 247 ft / 75 m (AMSL)
27 OM OM - - 266.85° / 263.74 ° - 247 ft / 75 m (AMSL)
27 MM MM - - 266.85° / 263.74 ° - 247 ft / 75 m (AMSL)
27 DME LEL 110.70 MHz 18 nm / 33 km - - 246 ft / 75 m (AMSL)
27 LOC-ILS LEL 110.70 MHz 18 nm / 33 km 266.86° / 263.75 ° - 247 ft / 75 m (AMSL)
27 GS LEL 110.70 MHz 10 nm / 19 km 267.70° / 264.59 ° 3.00° 247 ft / 75 m (AMSL)

Popular Alternatives